Time;durP1;ratioP1;P1;durP2;ratioP2;P2;SDS_P1;SDS_P2;PMS_P1;PMS_P2;Temp;Humidity;BMP_temperature;BMP_pressure;BME280_temperature;BME280_humidity;BME280_pressure;Samples;Min_cycle;Max_cycle;Signal;HPM_P1;HPM_P2
2022/05/06 00:02:16;;;;;;;5.78;4.50;;;;;;;17.46;50.16;99396.06;5107367;28;20082;-73
2022/05/06 00:04:49;;;;;;;5.00;4.22;;;;;;;17.41;50.35;99398.28;5107032;28;20048;-72
2022/05/06 00:07:21;;;;;;;7.13;4.43;;;;;;;17.26;50.79;99391.50;5107283;28;20035;-71
2022/05/06 00:09:53;;;;;;;6.35;4.00;;;;;;;17.15;51.25;99400.41;5106477;28;20036;-72
2022/05/06 00:12:25;;;;;;;5.82;4.40;;;;;;;17.16;51.30;99401.25;5107086;28;20044;-72
2022/05/06 00:14:58;;;;;;;5.28;3.70;;;;;;;17.17;50.87;99398.44;5106284;28;20044;-72
2022/05/06 00:17:31;;;;;;;5.88;4.00;;;;;;;17.13;51.05;99404.19;5106661;28;20242;-72
2022/05/06 00:20:06;;;;;;;4.70;3.57;;;;;;;17.08;51.40;99401.88;5106197;28;20043;-73
2022/05/06 00:22:38;;;;;;;6.10;3.90;;;;;;;17.06;51.44;99401.16;5106926;28;20386;-73
2022/05/06 00:25:10;;;;;;;5.05;3.95;;;;;;;16.84;51.41;99366.38;5106851;28;20082;-72
2022/05/06 00:27:42;;;;;;;5.35;3.42;;;;;;;17.11;51.48;99409.66;5106079;28;20047;-72
2022/05/06 00:30:15;;;;;;;5.80;3.38;;;;;;;17.09;51.29;99398.22;5106804;28;20292;-72
2022/05/06 00:32:48;;;;;;;4.53;3.85;;;;;;;17.11;51.74;99400.78;5105681;28;20044;-72
2022/05/06 00:35:20;;;;;;;6.65;4.32;;;;;;;16.83;51.58;99364.69;5106408;28;20047;-73
2022/05/06 00:37:52;;;;;;;5.70;3.88;;;;;;;16.74;51.69;99352.88;5106083;28;20113;-73
2022/05/06 00:40:25;;;;;;;5.60;3.90;;;;;;;17.05;51.57;99395.91;5106559;28;20086;-72
2022/05/06 00:42:57;;;;;;;4.85;4.15;;;;;;;16.99;51.84;99392.75;5106555;28;20178;-72
2022/05/06 00:45:40;;;;;;;6.15;3.78;;;;;;;17.07;52.53;99389.47;5106474;28;20089;-72
2022/05/06 00:48:14;;;;;;;5.60;4.20;;;;;;;17.11;51.87;99390.06;5105894;28;20292;-72
2022/05/06 00:50:46;;;;;;;7.68;4.43;;;;;;;17.05;51.61;99391.41;5106156;28;20039;-72
2022/05/06 00:53:19;;;;;;;4.22;3.58;;;;;;;17.06;51.93;99384.22;5105296;28;20281;-72
2022/05/06 00:55:53;;;;;;;5.38;4.13;;;;;;;16.65;51.79;99319.66;5106004;28;20040;-73
2022/05/06 00:58:29;;;;;;;6.35;4.15;;;;;;;16.77;51.92;99410.66;5106186;28;20093;-72
2022/05/06 01:01:03;;;;;;;9.18;4.53;;;;;;;16.94;52.08;99392.28;5105985;28;20040;-72
2022/05/06 01:03:37;;;;;;;6.10;3.83;;;;;;;16.94;52.29;99394.09;5106215;28;20085;-73
2022/05/06 01:06:13;;;;;;;4.43;3.90;;;;;;;16.89;52.57;99399.81;5106175;28;20058;-72
2022/05/06 01:08:46;;;;;;;4.32;3.67;;;;;;;16.82;52.81;99392.41;5105816;28;20044;-72
2022/05/06 01:11:18;;;;;;;5.22;3.70;;;;;;;13.28;52.88;98807.81;5105021;28;20044;-72
2022/05/06 01:13:53;;;;;;;5.38;4.45;;;;;;;15.34;52.69;99142.13;5106029;28;20063;-72
2022/05/06 01:16:23;;;;;;;7.35;5.65;;;;;;;16.90;52.52;99401.53;5105998;28;20103;-72
2022/05/06 01:18:55;;;;;;;7.13;4.45;;;;;;;16.85;52.66;99400.19;5105879;28;20044;-72
2022/05/06 01:21:27;;;;;;;6.43;4.20;;;;;;;15.63;53.11;99257.38;5105871;28;20085;-72
2022/05/06 01:24:00;;;;;;;5.00;4.05;;;;;;;16.70;53.20;99404.94;5105655;28;20036;-72
2022/05/06 01:26:58;;;;;;;7.20;4.43;;;;;;;16.73;54.58;99404.72;5105831;28;20085;-73
2022/05/06 01:29:32;;;;;;;6.30;3.92;;;;;;;16.73;53.08;99403.84;5105567;28;20066;-72
2022/05/06 01:32:05;;;;;;;4.40;3.55;;;;;;;16.68;53.49;99405.06;5105541;28;20044;-73
2022/05/06 01:34:41;;;;;;;6.18;4.57;;;;;;;15.17;54.00;99147.94;5105806;28;20040;-73
2022/05/06 01:37:16;;;;;;;6.32;4.50;;;;;;;16.36;53.23;99347.88;5105688;28;20044;-73
2022/05/06 01:39:53;;;;;;;5.38;4.00;;;;;;;16.63;54.35;99398.34;5085456;28;20044;-72
2022/05/06 01:42:30;;;;;;;5.93;4.65;;;;;;;16.63;53.77;99391.19;5085270;28;20040;-73
2022/05/06 01:45:06;;;;;;;7.47;4.38;;;;;;;16.67;53.83;99398.03;5085261;28;20247;-72
2022/05/06 01:47:41;;;;;;;14.55;4.25;;;;;;;15.93;53.67;99278.22;5084665;28;20292;-72
2022/05/06 01:50:14;;;;;;;5.45;4.47;;;;;;;16.57;54.06;99397.00;5085427;28;20171;-72
2022/05/06 01:52:50;;;;;;;6.72;4.60;;;;;;;16.58;54.21;99405.88;5085115;28;20040;-72
2022/05/06 01:55:23;;;;;;;6.15;4.40;;;;;;;14.89;53.84;99114.53;5085333;28;20090;-72
2022/05/06 01:57:56;;;;;;;6.63;4.30;;;;;;;15.55;54.02;99249.97;5085349;28;20041;-72
2022/05/06 02:00:28;;;;;;;5.57;4.20;;;;;;;16.59;54.17;99407.59;5085554;28;20040;-72
2022/05/06 02:03:01;;;;;;;4.75;4.10;;;;;;;16.56;54.15;99413.19;5089325;28;20048;-72
2022/05/06 02:05:32;;;;;;;4.78;4.10;;;;;;;15.71;54.43;99295.09;5088983;28;20044;-72
2022/05/06 02:08:05;;;;;;;4.88;4.32;;;;;;;15.94;54.30;99323.53;5088174;28;20059;-72
2022/05/06 02:10:39;;;;;;;6.55;4.10;;;;;;;16.53;54.81;99411.59;5089203;28;20090;-72
2022/05/06 02:13:11;;;;;;;5.60;4.60;;;;;;;16.46;54.54;99413.06;5089078;28;20304;-72
2022/05/06 02:15:44;;;;;;;5.70;4.50;;;;;;;16.48;54.76;99405.75;5088772;28;20311;-73
2022/05/06 02:18:16;;;;;;;6.35;5.07;;;;;;;16.47;54.59;99414.75;5088181;28;20041;-72
2022/05/06 02:20:48;;;;;;;5.35;4.65;;;;;;;16.49;54.67;99411.97;5088942;28;20150;-72
2022/05/06 02:23:20;;;;;;;6.05;4.13;;;;;;;16.47;54.49;99419.25;5088631;28;20300;-72
2022/05/06 02:25:55;;;;;;;4.75;4.05;;;;;;;16.13;54.78;99364.88;5088558;28;20040;-72
2022/05/06 02:28:27;;;;;;;5.40;4.00;;;;;;;16.33;54.74;99407.81;5088524;28;20044;-72
2022/05/06 02:33:48;;;;;;;5.05;4.47;;;;;;;15.97;54.91;99370.56;5088722;28;20188;-73
2022/05/06 02:36:19;;;;;;;5.90;3.72;;;;;;;16.12;55.18;99414.84;5088432;28;20177;-72
2022/05/06 02:38:49;;;;;;;4.50;3.60;;;;;;;16.15;55.06;99419.94;5101444;28;20056;-73
2022/05/06 02:41:20;;;;;;;4.82;3.90;;;;;;;16.12;55.30;99408.63;5091653;28;20036;-72
2022/05/06 02:43:49;;;;;;;4.72;3.95;;;;;;;16.12;55.21;99413.97;5107764;28;20126;-72
2022/05/06 02:46:19;;;;;;;5.38;4.32;;;;;;;15.97;55.61;99416.00;5109091;28;20028;-73
2022/05/06 02:48:49;;;;;;;6.50;4.00;;;;;;;15.95;55.82;99412.59;5108773;28;20048;-73
2022/05/06 02:51:19;;;;;;;5.50;4.18;;;;;;;15.99;55.71;99414.06;5108204;28;20046;-73
2022/05/06 02:53:49;;;;;;;5.97;4.40;;;;;;;15.94;55.94;99408.22;5108419;28;20047;-73
2022/05/06 02:56:21;;;;;;;5.60;4.22;;;;;;;15.64;55.72;99360.59;5108602;28;20063;-72
2022/05/06 02:58:50;;;;;;;5.25;4.30;;;;;;;15.89;55.89;99407.72;5108472;28;20047;-71
2022/05/06 03:01:20;;;;;;;5.63;4.47;;;;;;;14.48;55.49;99165.59;5107713;28;20080;-71
2022/05/06 03:03:51;;;;;;;5.18;4.22;;;;;;;15.92;55.52;99410.16;5107715;28;20109;-72
2022/05/06 03:06:20;;;;;;;35.00;31.25;;;;;;;15.88;55.62;99412.22;5108154;28;20051;-72
2022/05/06 03:08:50;;;;;;;86.72;68.35;;;;;;;15.87;55.66;99412.34;5108101;28;20047;-72
2022/05/06 03:11:22;;;;;;;35.58;27.45;;;;;;;15.84;56.21;99415.25;5107533;28;20039;-72
2022/05/06 03:13:50;;;;;;;15.68;12.63;;;;;;;15.64;56.15;99388.16;5107238;28;20035;-72
2022/05/06 03:16:21;;;;;;;7.15;6.18;;;;;;;15.83;56.36;99418.88;5108512;28;20028;-72
2022/05/06 03:18:51;;;;;;;6.35;5.72;;;;;;;15.83;56.50;99410.84;5107854;28;20085;-72
2022/05/06 03:21:21;;;;;;;7.75;5.28;;;;;;;15.83;56.42;99402.84;5107826;28;20211;-72
2022/05/06 03:23:52;;;;;;;7.07;6.18;;;;;;;15.85;56.68;99406.25;5107237;28;20067;-72
2022/05/06 03:26:22;;;;;;;6.10;5.20;;;;;;;15.80;57.24;99411.09;5107764;28;20043;-72
2022/05/06 03:28:52;;;;;;;6.10;5.30;;;;;;;15.75;57.10;99413.25;5107959;28;20047;-72
2022/05/06 03:31:21;;;;;;;8.05;6.18;;;;;;;12.89;58.45;98957.88;5107399;28;20144;-72
2022/05/06 03:33:52;;;;;;;7.38;5.82;;;;;;;15.65;57.65;99423.78;5107150;28;20043;-72
2022/05/06 03:36:22;;;;;;;6.88;5.82;;;;;;;15.46;57.70;99375.34;5107314;28;20034;-72
2022/05/06 03:38:52;;;;;;;9.18;5.35;;;;;;;15.05;57.29;99325.88;5107305;28;20048;-73
2022/05/06 03:41:23;;;;;;;7.20;5.50;;;;;;;15.87;57.57;99405.16;5107734;28;20040;-72
2022/05/06 03:43:52;;;;;;;6.85;5.57;;;;;;;15.90;57.13;99415.63;5107430;28;20036;-72
2022/05/06 03:46:22;;;;;;;7.95;5.93;;;;;;;15.96;56.87;99414.31;5107724;28;20064;-73
2022/05/06 03:48:52;;;;;;;7.13;5.30;;;;;;;15.98;56.70;99407.88;5107772;28;20099;-72
2022/05/06 03:51:21;;;;;;;6.72;5.68;;;;;;;15.96;57.05;99411.63;5107766;28;20040;-73
2022/05/06 03:53:54;;;;;;;6.15;5.00;;;;;;;16.00;57.00;99421.97;5107688;28;20040;-72
2022/05/06 03:56:25;;;;;;;6.03;4.50;;;;;;;16.00;57.26;99413.09;5106771;28;20056;-73
2022/05/06 03:58:53;;;;;;;10.48;7.75;;;;;;;15.99;56.90;99414.91;5106154;28;20056;-72
2022/05/06 04:01:23;;;;;;;14.48;9.20;;;;;;;15.99;56.87;99422.94;5107422;28;20036;-73
2022/05/06 04:03:54;;;;;;;11.43;10.20;;;;;;;15.97;57.12;99424.88;5107435;28;20051;-72
2022/05/06 04:06:23;;;;;;;12.15;9.63;;;;;;;15.98;57.06;99444.44;5107067;28;20102;-73
2022/05/06 04:08:54;;;;;;;8.98;6.43;;;;;;;15.95;57.15;99442.84;5107380;28;20111;-72
2022/05/06 04:11:25;;;;;;;6.68;5.68;;;;;;;15.63;57.30;99397.16;5107317;28;20036;-73
2022/05/06 04:13:53;;;;;;;7.60;5.63;;;;;;;15.87;57.35;99433.72;5106505;28;20296;-72
2022/05/06 04:16:26;;;;;;;7.25;5.30;;;;;;;15.54;57.19;99400.53;5106961;28;20047;-72
2022/05/06 04:18:59;;;;;;;7.30;5.32;;;;;;;14.57;57.14;99317.78;5106079;28;20044;-73
2022/05/06 04:24:18;;;;;;;7.40;5.38;;;;;;;15.88;57.56;99457.66;5105832;28;20086;-72
2022/05/06 04:26:52;;;;;;;6.03;5.25;;;;;;;15.88;57.56;99456.78;5106711;28;20097;-72
2022/05/06 04:29:24;;;;;;;8.25;5.30;;;;;;;15.74;57.09;99431.13;5106975;28;20044;-72
2022/05/06 04:31:56;;;;;;;7.32;5.50;;;;;;;15.92;57.21;99453.78;5106547;28;20052;-72
2022/05/06 04:34:28;;;;;;;7.80;7.00;;;;;;;15.92;57.26;99469.81;5106417;28;20247;-73
2022/05/06 04:37:00;;;;;;;8.35;5.53;;;;;;;15.85;57.92;99465.91;5106789;28;20036;-72
2022/05/06 04:39:33;;;;;;;6.85;5.90;;;;;;;15.51;57.86;99413.25;5106184;28;20063;-72
2022/05/06 04:42:07;;;;;;;7.60;6.22;;;;;;;14.66;58.20;99289.63;5106374;28;20044;-72
2022/05/06 04:44:40;;;;;;;7.22;5.95;;;;;;;15.78;58.10;99463.81;5105560;28;20173;-72
2022/05/06 04:47:12;;;;;;;6.80;5.43;;;;;;;10.91;58.22;98667.09;5105564;28;20046;-73
2022/05/06 04:49:44;;;;;;;7.10;5.88;;;;;;;15.66;58.58;99471.75;5106504;28;20048;-72
2022/05/06 04:52:17;;;;;;;7.63;5.65;;;;;;;15.49;58.12;99432.06;5106291;28;20242;-72
2022/05/06 04:54:49;;;;;;;6.70;6.00;;;;;;;15.69;58.37;99476.88;5105692;28;20043;-72
2022/05/06 04:57:23;;;;;;;8.35;6.07;;;;;;;13.15;58.53;99056.19;5106459;28;20047;-72
2022/05/06 04:59:55;;;;;;;6.57;5.97;;;;;;;15.69;58.52;99482.22;5106099;28;20057;-72
2022/05/06 05:02:27;;;;;;;8.32;6.13;;;;;;;15.65;59.04;99486.09;5106080;28;20039;-73
2022/05/06 05:04:59;;;;;;;8.35;6.13;;;;;;;15.17;58.83;99406.88;5105991;28;20040;-72
2022/05/06 05:07:32;;;;;;;8.07;6.10;;;;;;;15.71;58.69;99480.28;5106147;28;20181;-72
2022/05/06 05:10:05;;;;;;;7.43;5.35;;;;;;;15.64;58.89;99483.50;5106200;28;20089;-72
2022/05/06 05:12:38;;;;;;;6.90;5.63;;;;;;;15.57;59.66;99487.59;5105963;28;20035;-72
2022/05/06 05:15:11;;;;;;;6.45;4.80;;;;;;;15.63;58.70;99487.13;5106215;28;20047;-73
2022/05/06 05:17:44;;;;;;;6.13;4.95;;;;;;;15.60;58.76;99485.53;5106279;28;20047;-72
2022/05/06 05:20:17;;;;;;;8.77;5.18;;;;;;;15.65;58.08;99490.56;5105619;28;20040;-73
2022/05/06 05:22:49;;;;;;;6.90;5.45;;;;;;;15.69;58.55;99484.91;5105077;28;20109;-73
2022/05/06 05:25:21;;;;;;;11.30;5.15;;;;;;;15.75;58.09;99485.41;5105630;28;20048;-72
2022/05/06 05:27:55;;;;;;;6.45;5.63;;;;;;;15.75;58.20;99483.59;5105727;28;20044;-72
2022/05/06 05:30:27;;;;;;;7.22;5.45;;;;;;;15.71;58.15;99485.63;5106031;28;20044;-72
2022/05/06 05:32:59;;;;;;;6.70;5.50;;;;;;;15.76;57.75;99489.78;5105721;28;20078;-73
2022/05/06 05:35:33;;;;;;;12.23;4.82;;;;;;;15.76;58.07;99485.28;5104683;28;20101;-72
2022/05/06 05:38:06;;;;;;;10.55;6.28;;;;;;;14.23;57.76;99303.31;5105588;28;20105;-73
2022/05/06 05:40:38;;;;;;;8.57;5.60;;;;;;;15.76;58.00;99473.75;5104983;28;20044;-72
2022/05/06 05:48:19;;;;;;;9.27;5.68;;;;;;;15.73;58.18;99477.50;5105523;28;20047;-72
2022/05/06 05:48:55;;;;;;;6.57;5.78;;;;;;;15.74;58.49;99487.22;5105756;28;20048;-73
2022/05/06 05:51:25;;;;;;;6.50;5.55;;;;;;;15.57;57.87;99456.38;5105444;28;20089;-72
2022/05/06 05:53:55;;;;;;;8.45;6.80;;;;;;;15.78;58.11;99496.72;5105736;28;20089;-73
2022/05/06 05:56:25;;;;;;;6.78;5.63;;;;;;;15.83;57.90;99497.22;5104854;28;20029;-72
2022/05/06 05:58:56;;;;;;;7.35;5.90;;;;;;;14.84;58.52;99357.66;5105620;28;20040;-73
2022/05/06 06:01:25;;;;;;;5.80;4.93;;;;;;;15.85;58.22;99507.81;5105386;28;20103;-72
2022/05/06 06:03:55;;;;;;;7.32;5.30;;;;;;;15.84;58.21;99509.63;5104596;28;20063;-73
2022/05/06 06:06:25;;;;;;;9.10;5.57;;;;;;;15.82;58.43;99506.22;5106039;28;20036;-73
2022/05/06 06:08:55;;;;;;;6.70;5.35;;;;;;;15.74;58.38;99510.41;5104465;28;20051;-72
2022/05/06 06:11:25;;;;;;;9.65;5.30;;;;;;;15.74;58.46;99505.94;5105248;28;20048;-72
2022/05/06 06:13:57;;;;;;;7.03;4.78;;;;;;;15.73;58.66;99524.75;5105475;28;20040;-72
2022/05/06 06:16:26;;;;;;;5.88;4.90;;;;;;;15.49;58.24;99477.47;5104467;28;20040;-73
2022/05/06 06:18:58;;;;;;;5.85;4.80;;;;;;;15.79;58.20;99519.81;5105027;28;20104;-73
2022/05/06 06:21:26;;;;;;;6.97;5.57;;;;;;;15.80;58.28;99512.63;5105384;28;20059;-72
2022/05/06 06:23:56;;;;;;;6.22;5.22;;;;;;;15.82;58.10;99516.06;5105761;28;20289;-72
2022/05/06 06:26:26;;;;;;;7.32;6.32;;;;;;;15.73;58.50;99519.41;5105545;28;20081;-72
2022/05/06 06:28:58;;;;;;;9.95;6.85;;;;;;;14.77;58.30;99363.56;5105184;28;20040;-72
2022/05/06 06:31:30;;;;;;;10.73;8.00;;;;;;;15.78;58.14;99525.25;5105085;28;20043;-74
2022/05/06 06:34:02;;;;;;;8.50;6.45;;;;;;;15.82;57.83;99548.13;5104395;28;20036;-73
2022/05/06 06:36:32;;;;;;;6.88;5.40;;;;;;;15.79;58.31;99530.50;5104873;28;20044;-73
2022/05/06 06:39:02;;;;;;;7.28;5.38;;;;;;;15.84;58.13;99527.47;5087471;28;20052;-73
2022/05/06 06:41:32;;;;;;;7.53;5.75;;;;;;;15.85;58.20;99523.84;5104011;28;20036;-72
2022/05/06 06:44:04;;;;;;;8.20;5.97;;;;;;;15.90;57.90;99527.03;5104714;28;20134;-72
2022/05/06 06:46:34;;;;;;;6.53;5.82;;;;;;;15.90;58.38;99535.91;5105847;28;20044;-72
2022/05/06 06:49:03;;;;;;;10.63;6.28;;;;;;;15.94;58.15;99540.03;5108452;28;20103;-73
2022/05/06 06:51:33;;;;;;;6.57;5.25;;;;;;;15.95;58.20;99522.19;5108797;28;20028;-73
2022/05/06 06:54:03;;;;;;;7.13;6.13;;;;;;;15.98;58.26;99538.00;5108398;28;20059;-72
2022/05/06 06:56:33;;;;;;;10.35;5.97;;;;;;;16.00;58.43;99533.38;5109041;28;20040;-73
2022/05/06 06:59:05;;;;;;;11.02;6.72;;;;;;;15.97;58.26;99542.50;5108624;28;20047;-72
2022/05/06 07:01:33;;;;;;;10.70;6.45;;;;;;;15.95;58.74;99540.91;5108566;28;20032;-73
2022/05/06 07:04:03;;;;;;;9.75;6.30;;;;;;;15.97;58.61;99531.78;5108580;28;20036;-72
2022/05/06 07:12:13;;;;;;;7.05;6.05;;;;;;;16.04;58.36;99529.53;5108400;28;20066;-72
2022/05/06 07:14:46;;;;;;;9.90;6.00;;;;;;;14.75;58.12;99296.97;5107323;28;20040;-73
2022/05/06 07:17:19;;;;;;;7.60;6.85;;;;;;;16.17;58.05;99535.66;5108748;28;20226;-72
2022/05/06 07:19:51;;;;;;;7.10;6.07;;;;;;;16.26;58.33;99534.09;5091205;28;20048;-72
2022/05/06 07:22:23;;;;;;;9.98;6.95;;;;;;;16.27;57.78;99536.66;5107938;28;20098;-72
2022/05/06 07:24:55;;;;;;;7.03;6.32;;;;;;;16.04;57.88;99490.28;5107072;28;20292;-72
2022/05/06 07:27:28;;;;;;;7.82;6.53;;;;;;;16.36;57.96;99530.63;5107744;28;20175;-72
2022/05/06 07:30:01;;;;;;;9.40;6.50;;;;;;;14.20;57.71;99162.28;5108129;28;20040;-73
2022/05/06 07:32:34;;;;;;;7.78;6.35;;;;;;;16.44;57.80;99529.16;5107236;28;20040;-73
2022/05/06 07:35:07;;;;;;;7.65;6.85;;;;;;;16.49;57.92;99524.31;5107635;28;20056;-72
2022/05/06 07:37:40;;;;;;;7.55;6.07;;;;;;;16.55;57.36;99531.88;5106807;28;20075;-73
2022/05/06 07:40:15;;;;;;;7.00;5.90;;;;;;;16.10;57.47;99448.00;5123544;28;20073;-72
2022/05/06 07:42:50;;;;;;;8.18;6.00;;;;;;;16.62;56.93;99522.41;5107353;28;20048;-73
2022/05/06 07:45:24;;;;;;;8.40;6.55;;;;;;;16.72;56.84;99523.44;5106735;28;20040;-72
2022/05/06 07:47:56;;;;;;;8.97;7.40;;;;;;;16.03;56.96;99429.75;5107357;28;20044;-72
2022/05/06 07:50:30;;;;;;;8.07;6.93;;;;;;;16.81;56.61;99532.56;5107256;28;20040;-73
2022/05/06 07:53:02;;;;;;;8.75;7.25;;;;;;;16.87;56.57;99527.59;5106517;28;20047;-73
2022/05/06 07:55:36;;;;;;;8.98;6.72;;;;;;;16.95;56.37;99532.34;5106142;28;20056;-73
2022/05/06 07:58:09;;;;;;;7.50;6.78;;;;;;;16.99;56.17;99533.81;5106827;28;20043;-72
2022/05/06 08:00:44;;;;;;;7.93;7.13;;;;;;;16.96;56.45;99534.91;5106123;28;20039;-73
2022/05/06 08:06:06;;;;;;;10.65;6.78;;;;;;;15.25;56.43;99263.84;5106842;28;20044;-73
2022/05/06 08:08:38;;;;;;;10.13;7.40;;;;;;;16.94;56.11;99536.00;5106891;28;20089;-73
2022/05/06 08:11:10;;;;;;;9.73;7.20;;;;;;;17.05;55.82;99529.78;5106078;28;20044;-73
2022/05/06 08:13:44;;;;;;;7.32;6.07;;;;;;;17.08;55.70;99534.91;5107091;28;20322;-73
2022/05/06 08:16:18;;;;;;;8.88;7.18;;;;;;;17.17;55.54;99536.84;5106947;28;20036;-73
2022/05/06 08:18:51;;;;;;;11.20;8.27;;;;;;;17.22;55.83;99532.88;5106635;28;20082;-73
2022/05/06 08:21:23;;;;;;;9.60;7.40;;;;;;;17.24;55.59;99530.06;5106683;28;20039;-73
2022/05/06 08:23:56;;;;;;;11.00;7.30;;;;;;;16.58;55.87;99424.63;5105498;28;20308;-73
2022/05/06 08:26:26;;;;;;;12.27;7.90;;;;;;;17.27;55.40;99535.19;5106773;28;20319;-73
2022/05/06 08:28:56;;;;;;;8.18;6.97;;;;;;;17.05;55.44;99485.13;5106796;28;20371;-72
2022/05/06 08:31:28;;;;;;;7.90;6.65;;;;;;;17.24;55.55;99535.41;5105846;28;20311;-73
2022/05/06 08:33:57;;;;;;;7.68;5.95;;;;;;;17.30;55.28;99535.78;5088619;28;20237;-73
2022/05/06 08:36:26;;;;;;;8.10;7.22;;;;;;;17.07;55.42;99483.16;5106549;28;20239;-73
2022/05/06 08:38:57;;;;;;;8.13;7.32;;;;;;;17.49;54.90;99537.84;5106262;28;20254;-73
2022/05/06 08:41:28;;;;;;;9.07;7.50;;;;;;;17.31;55.22;99497.31;5105405;28;20362;-73
2022/05/06 08:43:57;;;;;;;9.27;7.53;;;;;;;17.62;54.97;99543.94;5105459;28;20289;-73
2022/05/06 08:52:11;;;;;;;8.07;5.90;;;;;;;17.76;54.37;99547.31;5106443;28;20089;-73
2022/05/06 08:54:43;;;;;;;7.45;5.93;;;;;;;17.76;54.37;99552.69;5105568;28;20044;-73
2022/05/06 08:57:15;;;;;;;8.18;6.88;;;;;;;17.61;54.42;99519.94;5106297;28;20078;-73
2022/05/06 08:59:52;;;;;;;11.18;8.68;;;;;;;17.93;54.45;99546.78;5106228;28;20292;-73
2022/05/06 09:02:26;;;;;;;10.63;7.65;;;;;;;18.01;54.26;99563.09;5105715;28;20047;-73
2022/05/06 09:04:59;;;;;;;7.53;6.43;;;;;;;17.89;54.63;99550.69;5105728;28;20204;-73
2022/05/06 09:07:31;;;;;;;8.00;7.00;;;;;;;17.97;54.54;99550.91;5104955;28;20040;-73
2022/05/06 09:10:13;;;;;;;9.93;7.13;;;;;;;18.01;55.11;99572.97;5105338;28;20292;-73
2022/05/06 09:12:46;;;;;;;8.88;7.05;;;;;;;13.72;54.77;98828.44;5105718;28;20040;-73
2022/05/06 09:18:10;;;;;;;13.75;11.32;;;;;;;18.08;54.81;99555.38;5106166;28;20093;-73
2022/05/06 09:20:43;;;;;;;20.83;18.55;;;;;;;18.08;54.86;99564.28;5105636;28;20062;-73
2022/05/06 09:23:24;;;;;;;30.08;17.58;;;;;;;18.05;55.85;99567.22;5105722;28;20145;-73
2022/05/06 09:25:57;;;;;;;10.73;8.90;;;;;;;17.85;55.38;99519.75;5105499;28;20090;-73
2022/05/06 09:28:31;;;;;;;12.93;10.25;;;;;;;18.16;54.88;99563.66;5105688;28;20036;-73
2022/05/06 09:31:06;;;;;;;12.07;9.50;;;;;;;17.98;54.88;99523.13;5105345;28;20042;-73
2022/05/06 09:33:41;;;;;;;9.77;8.88;;;;;;;18.23;55.48;99564.84;5105428;28;20040;-73
2022/05/06 09:36:31;;;;;;;12.10;10.80;;;;;;;18.20;55.59;99560.59;5105569;28;20063;-73
2022/05/06 09:39:04;;;;;;;20.77;18.33;;;;;;;18.28;55.52;99570.69;5104036;28;20212;-73
2022/05/06 09:41:38;;;;;;;13.30;11.23;;;;;;;17.14;55.15;99363.88;5105527;28;20081;-73
2022/05/06 09:44:12;;;;;;;14.98;12.70;;;;;;;18.42;55.00;99564.16;5105305;28;20284;-73
2022/05/06 09:46:44;;;;;;;13.00;11.52;;;;;;;18.45;55.14;99556.69;5105189;28;20141;-73
2022/05/06 09:49:18;;;;;;;16.92;14.40;;;;;;;18.46;54.91;99554.88;5105455;28;20044;-73
2022/05/06 09:51:50;;;;;;;11.07;9.88;;;;;;;18.56;54.50;99556.66;5104607;28;20089;-73
2022/05/06 09:54:32;;;;;;;18.05;15.20;;;;;;;18.60;54.86;99557.25;5105148;28;20036;-73
2022/05/06 09:57:06;;;;;;;15.93;12.57;;;;;;;18.70;54.63;99555.50;5105375;28;20334;-73
2022/05/06 09:59:39;;;;;;;11.73;10.50;;;;;;;18.78;54.25;99558.38;5105432;28;20044;-73
2022/05/06 10:02:12;;;;;;;10.60;9.52;;;;;;;18.88;54.17;99563.81;5104352;28;20406;-73
2022/05/06 10:04:48;;;;;;;9.43;8.38;;;;;;;18.97;53.75;99552.25;5105137;28;20044;-73
2022/05/06 10:07:25;;;;;;;8.95;7.82;;;;;;;18.85;53.65;99534.53;5104083;28;20211;-73
2022/05/06 10:10:01;;;;;;;8.18;7.38;;;;;;;19.02;53.86;99554.53;5104882;28;20040;-73
2022/05/06 10:12:39;;;;;;;9.80;7.25;;;;;;;18.80;53.62;99520.66;5104909;28;20322;-74
2022/05/06 10:15:13;;;;;;;8.50;7.63;;;;;;;19.03;53.74;99558.94;5105075;28;20040;-73
2022/05/06 10:17:51;;;;;;;10.32;8.95;;;;;;;17.86;53.16;99356.09;5104316;28;20040;-73
2022/05/06 10:20:49;;;;;;;15.10;13.50;;;;;;;19.11;52.77;99551.91;5104789;28;20082;-73
2022/05/06 10:23:24;;;;;;;13.88;12.43;;;;;;;19.14;53.14;99550.78;5107590;28;20346;-73
2022/05/06 10:25:57;;;;;;;7.90;7.03;;;;;;;19.18;53.34;99546.84;5107814;28;20047;-73
2022/05/06 10:34:55;;;;;;;10.05;8.18;;;;;;;19.35;52.22;99553.44;5107857;28;20085;-73
2022/05/06 10:37:36;;;;;;;15.50;12.55;;;;;;;19.17;51.60;99513.75;5108197;28;20094;-74
2022/05/06 10:40:33;;;;;;;13.23;11.80;;;;;;;19.37;50.84;99548.78;5107736;28;20350;-73
2022/05/06 10:43:05;;;;;;;10.07;9.00;;;;;;;19.43;52.08;99543.72;5095418;28;20056;-73
2022/05/06 10:45:47;;;;;;;10.73;7.47;;;;;;;19.48;51.37;99546.88;5108763;28;20281;-73
2022/05/06 10:48:22;;;;;;;12.98;10.90;;;;;;;19.28;51.55;99520.88;5108610;28;20036;-73
2022/05/06 10:50:54;;;;;;;12.50;11.20;;;;;;;17.72;51.56;99272.47;5108510;28;20070;-73
2022/05/06 10:53:34;;;;;;;12.20;10.15;;;;;;;19.40;50.42;99549.38;5108434;28;20048;-73
2022/05/06 10:56:08;;;;;;;12.15;10.88;;;;;;;19.43;51.26;99546.41;5108348;28;20040;-73
2022/05/06 10:58:40;;;;;;;14.50;11.73;;;;;;;19.45;51.31;99546.28;5108397;28;20047;-73
2022/05/06 11:01:16;;;;;;;13.82;12.30;;;;;;;19.13;51.34;99506.97;5108131;28;20036;-73
2022/05/06 11:03:52;;;;;;;14.77;12.50;;;;;;;19.48;51.29;99562.13;5107454;28;20324;-73
2022/05/06 11:06:25;;;;;;;12.35;10.65;;;;;;;19.47;51.92;99569.34;5108303;28;20097;-73
2022/05/06 11:08:59;;;;;;;13.02;11.63;;;;;;;19.42;51.60;99566.22;5108175;28;20040;-73
2022/05/06 11:11:34;;;;;;;10.15;9.00;;;;;;;19.46;51.42;99562.28;5107725;28;20064;-73
2022/05/06 11:14:21;;;;;;;12.75;11.55;;;;;;;14.59;50.90;99091.00;5106737;28;20121;-73
2022/05/06 11:16:54;;;;;;;17.63;15.82;;;;;;;19.43;52.10;99561.69;5107809;28;20089;-73
2022/05/06 11:19:35;;;;;;;33.40;28.13;;;;;;;19.48;51.75;99559.44;5108137;28;20044;-71
2022/05/06 11:22:07;;;;;;;27.02;19.67;;;;;;;19.46;52.22;99553.38;5107963;28;20081;-71
2022/05/06 11:24:41;;;;;;;18.88;16.65;;;;;;;19.27;51.92;99519.19;5107646;28;20284;-70
2022/05/06 11:27:14;;;;;;;17.40;13.60;;;;;;;19.50;51.56;99550.25;5106714;28;20222;-71
2022/05/06 11:29:50;;;;;;;12.27;10.93;;;;;;;19.48;51.18;99543.31;5107677;28;20345;-73
2022/05/06 11:32:23;;;;;;;12.10;10.25;;;;;;;19.42;51.61;99536.66;5107016;28;20204;-73
2022/05/06 11:35:00;;;;;;;10.98;9.32;;;;;;;18.61;51.74;99408.66;5106987;28;20082;-73
2022/05/06 11:37:34;;;;;;;16.73;14.48;;;;;;;17.97;51.16;99319.47;5107273;28;20214;-73
2022/05/06 11:42:55;;;;;;;15.10;13.50;;;;;;;19.39;51.60;99576.38;5092809;28;20051;-73
2022/05/06 11:48:20;;;;;;;15.80;13.07;;;;;;;18.38;51.27;99428.56;5107268;28;20081;-73
2022/05/06 11:50:57;;;;;;;11.43;9.30;;;;;;;19.03;51.20;99505.22;5107320;28;20040;-73
2022/05/06 11:53:31;;;;;;;10.52;8.77;;;;;;;19.25;52.13;99545.31;5107079;28;20097;-73
2022/05/06 11:56:06;;;;;;;11.05;9.25;;;;;;;19.22;52.69;99538.38;5107300;28;20058;-73
2022/05/06 11:58:39;;;;;;;11.93;9.27;;;;;;;15.45;52.88;98901.81;5107016;28;20085;-73
2022/05/06 12:01:11;;;;;;;12.70;11.07;;;;;;;17.79;53.55;99305.81;5107315;28;20040;-73
2022/05/06 12:03:43;;;;;;;12.63;10.90;;;;;;;19.21;53.73;99557.34;5105796;28;20406;-72
2022/05/06 12:06:16;;;;;;;11.88;9.55;;;;;;;19.21;53.57;99558.19;5106786;28;20039;-73
2022/05/06 12:08:48;;;;;;;19.25;12.60;;;;;;;19.07;54.53;99560.38;5106929;28;20040;-73
2022/05/06 12:11:26;;;;;;;12.82;11.10;;;;;;;19.06;54.42;99564.03;5107054;28;20085;-73
2022/05/06 12:14:05;;;;;;;11.88;9.95;;;;;;;19.01;55.46;99591.31;5106821;28;20051;-73
2022/05/06 12:16:53;;;;;;;16.23;13.32;;;;;;;18.97;54.35;99576.44;5106812;28;20089;-73
2022/05/06 12:19:36;;;;;;;14.23;12.73;;;;;;;18.88;53.96;99574.53;5106726;28;20040;-73
2022/05/06 12:22:10;;;;;;;12.52;11.10;;;;;;;18.82;54.12;99581.28;5106537;28;20227;-73
2022/05/06 12:24:43;;;;;;;;;;;;;;;18.69;54.45;99590.53;5107235;28;20063;-73
2022/05/06 12:27:26;;;;;;;9.82;8.73;;;;;;;18.71;54.54;99581.34;5106724;28;19920;-75
2022/05/06 12:30:00;;;;;;;10.40;8.90;;;;;;;18.79;54.45;99589.59;5105447;28;20082;-73
2022/05/06 12:32:32;;;;;;;9.73;8.73;;;;;;;18.85;54.34;99581.03;5105909;28;20067;-73
2022/05/06 12:35:06;;;;;;;10.70;9.60;;;;;;;18.81;54.99;99578.75;5105727;28;20069;-73